Grundy, VA (24614)

7:39 PM EST on February 12, 2016 (GMT -0500)
Oakwood, VA | | Change Station
CLOSE
Current Station
Personal Weather Station
Location: Oakwood, VA
Elevation: 1404 ft
Nearby Weather Stations

Elev 1404 ft 37.21 °N, 82.01 °W | Updated 14 minutes ago

Overcast
Overcast
30.0 °F
Feels Like 30 °F
N
0.0
Wind Variable Wind from NE

Today
High -- | Low -- °F
--% Chance of Precip.
Yesterday
High -- | Low -- °F
Precip. -- in
Pressure 30.00 in
Visibility 10.0 miles
Clouds Overcast 1600 ft
Windchill 30 °F
Dew Point 24 °F
Humidity 78%
Rainfall 0.00 in
Snow Depth Not available.
7:21 AM 6:04 PM
Waxing Crescent, 25% visible
METAR KJFZ 130015Z AUTO 28010G16KT 10SM -SN OVC016 M03/M07 A3000 RMK AO2 T10331071
Pressure 30.00 in
Visibility 10.0 miles
Clouds Overcast 1600 ft
Windchill 30 °F
Dew Point 24 °F
Humidity 78%
Rainfall 0.00 in
Snow Depth Not available.
7:21 AM 6:04 PM
Waxing Crescent, 25% visible
METAR KJFZ 130015Z AUTO 28010G16KT 10SM -SN OVC016 M03/M07 A3000 RMK AO2 T10331071

10-Day Weather Forecast

Almanac

Astronomy

Feb. 12, 2016 Rise Set
Actual Time
Civil Twilight
Nautical Twilight
Astronomical Twilight
Moon
Length of Visible Light
Length of Day
Tomorrow will be .
, % of the Moon is Illuminated

Today's Extremes

State Highs State Lows

Community

WunderPhotos

Upload Photos

1,892,444 photos uploaded!

WunderBlog® & News

Nearby

Air Quality

  Air Quality AQ Index Pollutant
Not available.

Snow Depth

Station Depth Elevation

Earthquake Activity

City Distance Mag. Time & Date
Minimum magnitude displayed is 2.5.

Coastal Water Temperatures

Place Temperature

Stations

Nearby Weather Stations

Station Location Temp. Windchill Dew Point Humidity Wind Precip. Elev Updated Type
                   

Watches & Warnings

There are currently no watches in effect.